sensor_id;sensor_type;location;lat;lon;timestamp;temperature;humidity
20777;DHT22;10548;47.504;8.248;2023-05-29T00:00:49;14.30;54.40
20777;DHT22;10548;47.504;8.248;2023-05-29T00:03:16;14.30;54.30
20777;DHT22;10548;47.504;8.248;2023-05-29T00:05:44;14.30;54.50
20777;DHT22;10548;47.504;8.248;2023-05-29T00:08:11;14.20;55.40
20777;DHT22;10548;47.504;8.248;2023-05-29T00:10:38;14.20;54.90
20777;DHT22;10548;47.504;8.248;2023-05-29T00:13:07;14.20;55.80
20777;DHT22;10548;47.504;8.248;2023-05-29T00:15:34;14.00;56.70
20777;DHT22;10548;47.504;8.248;2023-05-29T00:18:02;14.00;57.20
20777;DHT22;10548;47.504;8.248;2023-05-29T00:20:29;13.90;57.10
20777;DHT22;10548;47.504;8.248;2023-05-29T00:22:56;14.00;56.30
20777;DHT22;10548;47.504;8.248;2023-05-29T00:25:24;13.90;57.40
20777;DHT22;10548;47.504;8.248;2023-05-29T00:27:51;13.80;58.00
20777;DHT22;10548;47.504;8.248;2023-05-29T00:30:18;13.70;60.10
20777;DHT22;10548;47.504;8.248;2023-05-29T00:32:45;13.60;64.00
20777;DHT22;10548;47.504;8.248;2023-05-29T00:35:13;13.50;64.80
20777;DHT22;10548;47.504;8.248;2023-05-29T00:37:41;13.30;65.20
20777;DHT22;10548;47.504;8.248;2023-05-29T00:40:08;13.20;65.00
20777;DHT22;10548;47.504;8.248;2023-05-29T00:42:36;13.10;65.80
20777;DHT22;10548;47.504;8.248;2023-05-29T00:45:03;13.10;65.70
20777;DHT22;10548;47.504;8.248;2023-05-29T00:47:31;12.90;66.30
20777;DHT22;10548;47.504;8.248;2023-05-29T00:49:58;13.00;67.60
20777;DHT22;10548;47.504;8.248;2023-05-29T00:52:26;12.90;69.30
20777;DHT22;10548;47.504;8.248;2023-05-29T00:54:54;12.90;70.60
20777;DHT22;10548;47.504;8.248;2023-05-29T00:57:22;12.80;69.60
20777;DHT22;10548;47.504;8.248;2023-05-29T00:59:50;12.80;70.90
20777;DHT22;10548;47.504;8.248;2023-05-29T01:02:18;12.60;71.50
20777;DHT22;10548;47.504;8.248;2023-05-29T01:04:46;12.70;73.60
20777;DHT22;10548;47.504;8.248;2023-05-29T01:07:13;12.60;72.40
20777;DHT22;10548;47.504;8.248;2023-05-29T01:09:41;12.70;72.20
20777;DHT22;10548;47.504;8.248;2023-05-29T01:12:49;12.70;74.80
20777;DHT22;10548;47.504;8.248;2023-05-29T01:16:24;12.50;78.50
20777;DHT22;10548;47.504;8.248;2023-05-29T01:18:27;12.40;76.40
20777;DHT22;10548;47.504;8.248;2023-05-29T01:21:11;12.30;75.40
20777;DHT22;10548;47.504;8.248;2023-05-29T01:24:00;12.40;75.20
20777;DHT22;10548;47.504;8.248;2023-05-29T01:26:45;12.40;74.50
20777;DHT22;10548;47.504;8.248;2023-05-29T01:29:15;12.30;76.40
20777;DHT22;10548;47.504;8.248;2023-05-29T01:31:45;12.40;76.70
20777;DHT22;10548;47.504;8.248;2023-05-29T01:34:15;12.50;74.50
20777;DHT22;10548;47.504;8.248;2023-05-29T01:36:43;12.60;73.40
20777;DHT22;10548;47.504;8.248;2023-05-29T01:39:10;12.60;73.70
20777;DHT22;10548;47.504;8.248;2023-05-29T01:41:37;12.50;74.20
20777;DHT22;10548;47.504;8.248;2023-05-29T01:44:07;12.40;79.30
20777;DHT22;10548;47.504;8.248;2023-05-29T01:46:39;12.30;80.90
20777;DHT22;10548;47.504;8.248;2023-05-29T01:49:08;12.30;82.00
20777;DHT22;10548;47.504;8.248;2023-05-29T01:51:36;12.10;80.80
20777;DHT22;10548;47.504;8.248;2023-05-29T01:54:04;12.30;78.60
20777;DHT22;10548;47.504;8.248;2023-05-29T01:56:31;12.50;75.40
20777;DHT22;10548;47.504;8.248;2023-05-29T01:59:00;12.50;76.60
20777;DHT22;10548;47.504;8.248;2023-05-29T02:01:28;12.30;78.70
20777;DHT22;10548;47.504;8.248;2023-05-29T02:03:56;12.30;80.10
20777;DHT22;10548;47.504;8.248;2023-05-29T02:06:23;12.10;81.80
20777;DHT22;10548;47.504;8.248;2023-05-29T02:08:51;12.10;82.50
20777;DHT22;10548;47.504;8.248;2023-05-29T02:11:18;12.10;83.00
20777;DHT22;10548;47.504;8.248;2023-05-29T02:13:46;12.00;84.40
20777;DHT22;10548;47.504;8.248;2023-05-29T02:16:13;12.00;82.80
20777;DHT22;10548;47.504;8.248;2023-05-29T02:18:40;12.20;80.10
20777;DHT22;10548;47.504;8.248;2023-05-29T02:21:08;12.50;76.40
20777;DHT22;10548;47.504;8.248;2023-05-29T02:23:35;12.40;78.60
20777;DHT22;10548;47.504;8.248;2023-05-29T02:26:02;12.20;80.40
20777;DHT22;10548;47.504;8.248;2023-05-29T02:28:29;12.00;85.10
20777;DHT22;10548;47.504;8.248;2023-05-29T02:30:58;11.90;87.10
20777;DHT22;10548;47.504;8.248;2023-05-29T02:33:25;11.70;88.70
20777;DHT22;10548;47.504;8.248;2023-05-29T02:35:53;11.50;90.50
20777;DHT22;10548;47.504;8.248;2023-05-29T02:38:21;11.60;91.40
20777;DHT22;10548;47.504;8.248;2023-05-29T02:40:48;11.60;91.30
20777;DHT22;10548;47.504;8.248;2023-05-29T02:43:15;11.70;89.30
20777;DHT22;10548;47.504;8.248;2023-05-29T02:45:42;11.70;89.40
20777;DHT22;10548;47.504;8.248;2023-05-29T02:48:09;11.70;89.00
20777;DHT22;10548;47.504;8.248;2023-05-29T02:50:36;11.70;90.40
20777;DHT22;10548;47.504;8.248;2023-05-29T02:53:03;11.50;90.00
20777;DHT22;10548;47.504;8.248;2023-05-29T02:55:30;11.70;89.90
20777;DHT22;10548;47.504;8.248;2023-05-29T02:57:59;11.70;90.80
20777;DHT22;10548;47.504;8.248;2023-05-29T03:00:28;11.60;90.90
20777;DHT22;10548;47.504;8.248;2023-05-29T03:02:57;11.50;91.60
20777;DHT22;10548;47.504;8.248;2023-05-29T03:05:25;11.40;92.10
20777;DHT22;10548;47.504;8.248;2023-05-29T03:07:53;11.40;93.30
20777;DHT22;10548;47.504;8.248;2023-05-29T03:10:20;11.30;94.30
20777;DHT22;10548;47.504;8.248;2023-05-29T03:12:47;11.40;94.20
20777;DHT22;10548;47.504;8.248;2023-05-29T03:15:15;11.20;94.00
20777;DHT22;10548;47.504;8.248;2023-05-29T03:17:42;11.40;94.30
20777;DHT22;10548;47.504;8.248;2023-05-29T03:20:14;11.40;93.80
20777;DHT22;10548;47.504;8.248;2023-05-29T03:22:43;11.40;93.60
20777;DHT22;10548;47.504;8.248;2023-05-29T03:25:11;11.20;93.80
20777;DHT22;10548;47.504;8.248;2023-05-29T03:27:38;11.10;95.20
20777;DHT22;10548;47.504;8.248;2023-05-29T03:30:11;11.20;94.40
20777;DHT22;10548;47.504;8.248;2023-05-29T03:32:39;11.40;93.50
20777;DHT22;10548;47.504;8.248;2023-05-29T03:35:07;11.50;92.50
20777;DHT22;10548;47.504;8.248;2023-05-29T03:37:37;11.60;92.00
20777;DHT22;10548;47.504;8.248;2023-05-29T03:40:05;11.70;91.50
20777;DHT22;10548;47.504;8.248;2023-05-29T03:42:33;11.70;91.80
20777;DHT22;10548;47.504;8.248;2023-05-29T03:45:01;11.60;92.10
20777;DHT22;10548;47.504;8.248;2023-05-29T03:47:31;11.70;91.50
20777;DHT22;10548;47.504;8.248;2023-05-29T03:49:59;11.50;93.90
20777;DHT22;10548;47.504;8.248;2023-05-29T03:52:30;11.40;94.70
20777;DHT22;10548;47.504;8.248;2023-05-29T03:54:58;11.40;95.40
20777;DHT22;10548;47.504;8.248;2023-05-29T03:57:26;11.30;94.80
20777;DHT22;10548;47.504;8.248;2023-05-29T03:59:53;11.50;93.20
20777;DHT22;10548;47.504;8.248;2023-05-29T04:02:22;11.50;92.60
20777;DHT22;10548;47.504;8.248;2023-05-29T04:04:49;11.50;94.20
20777;DHT22;10548;47.504;8.248;2023-05-29T04:07:17;11.50;94.30
20777;DHT22;10548;47.504;8.248;2023-05-29T04:09:45;11.50;94.10
20777;DHT22;10548;47.504;8.248;2023-05-29T04:12:12;11.50;93.70
20777;DHT22;10548;47.504;8.248;2023-05-29T04:14:40;11.60;93.80
20777;DHT22;10548;47.504;8.248;2023-05-29T04:17:07;11.70;94.10
20777;DHT22;10548;47.504;8.248;2023-05-29T04:19:35;11.70;94.00
20777;DHT22;10548;47.504;8.248;2023-05-29T04:22:02;11.80;93.90
20777;DHT22;10548;47.504;8.248;2023-05-29T04:24:30;11.70;93.60
20777;DHT22;10548;47.504;8.248;2023-05-29T04:26:59;11.70;93.80
20777;DHT22;10548;47.504;8.248;2023-05-29T04:29:30;11.80;92.60
20777;DHT22;10548;47.504;8.248;2023-05-29T04:31:57;11.90;93.00
20777;DHT22;10548;47.504;8.248;2023-05-29T04:34:25;12.00;92.50
20777;DHT22;10548;47.504;8.248;2023-05-29T04:36:52;12.10;92.10
20777;DHT22;10548;47.504;8.248;2023-05-29T04:39:19;12.10;92.00
20777;DHT22;10548;47.504;8.248;2023-05-29T04:41:49;12.30;91.80
20777;DHT22;10548;47.504;8.248;2023-05-29T04:44:19;12.30;92.00
20777;DHT22;10548;47.504;8.248;2023-05-29T04:46:50;12.30;92.20
20777;DHT22;10548;47.504;8.248;2023-05-29T04:49:19;12.20;92.40
20777;DHT22;10548;47.504;8.248;2023-05-29T04:51:47;12.30;93.20
20777;DHT22;10548;47.504;8.248;2023-05-29T04:54:14;12.20;93.60
20777;DHT22;10548;47.504;8.248;2023-05-29T04:56:44;12.20;95.20
20777;DHT22;10548;47.504;8.248;2023-05-29T04:59:13;12.20;94.70
20777;DHT22;10548;47.504;8.248;2023-05-29T05:01:40;12.20;95.00
20777;DHT22;10548;47.504;8.248;2023-05-29T05:04:10;12.20;95.20
20777;DHT22;10548;47.504;8.248;2023-05-29T05:06:38;12.20;96.30
20777;DHT22;10548;47.504;8.248;2023-05-29T05:09:05;12.30;95.80
20777;DHT22;10548;47.504;8.248;2023-05-29T05:11:34;12.50;95.40
20777;DHT22;10548;47.504;8.248;2023-05-29T05:14:02;12.60;95.00
20777;DHT22;10548;47.504;8.248;2023-05-29T05:16:29;12.60;94.70
20777;DHT22;10548;47.504;8.248;2023-05-29T05:18:57;12.70;96.00
20777;DHT22;10548;47.504;8.248;2023-05-29T05:21:24;12.70;97.10
20777;DHT22;10548;47.504;8.248;2023-05-29T05:23:57;12.70;97.30
20777;DHT22;10548;47.504;8.248;2023-05-29T05:26:26;12.90;99.10
20777;DHT22;10548;47.504;8.248;2023-05-29T05:28:54;12.80;99.90
20777;DHT22;10548;47.504;8.248;2023-05-29T05:31:23;12.80;98.90
20777;DHT22;10548;47.504;8.248;2023-05-29T05:33:52;13.00;98.10
20777;DHT22;10548;47.504;8.248;2023-05-29T05:36:19;13.20;98.50
20777;DHT22;10548;47.504;8.248;2023-05-29T05:38:48;13.20;98.30
20777;DHT22;10548;47.504;8.248;2023-05-29T05:41:15;13.40;98.80
20777;DHT22;10548;47.504;8.248;2023-05-29T05:43:42;13.50;98.00
20777;DHT22;10548;47.504;8.248;2023-05-29T05:46:13;13.60;98.00
20777;DHT22;10548;47.504;8.248;2023-05-29T05:48:41;13.60;98.20
20777;DHT22;10548;47.504;8.248;2023-05-29T05:51:09;13.70;97.60
20777;DHT22;10548;47.504;8.248;2023-05-29T05:53:39;13.80;98.30
20777;DHT22;10548;47.504;8.248;2023-05-29T05:56:06;13.90;97.70
20777;DHT22;10548;47.504;8.248;2023-05-29T05:58:34;14.00;97.30
20777;DHT22;10548;47.504;8.248;2023-05-29T06:01:02;14.10;97.10
20777;DHT22;10548;47.504;8.248;2023-05-29T06:03:29;14.20;97.00
20777;DHT22;10548;47.504;8.248;2023-05-29T06:06:00;14.50;97.20
20777;DHT22;10548;47.504;8.248;2023-05-29T06:08:28;14.70;96.10
20777;DHT22;10548;47.504;8.248;2023-05-29T06:10:57;14.90;95.30
20777;DHT22;10548;47.504;8.248;2023-05-29T06:13:24;15.00;94.90
20777;DHT22;10548;47.504;8.248;2023-05-29T06:16:00;15.10;94.80
20777;DHT22;10548;47.504;8.248;2023-05-29T06:18:27;15.30;96.00
20777;DHT22;10548;47.504;8.248;2023-05-29T06:20:55;15.40;93.60
20777;DHT22;10548;47.504;8.248;2023-05-29T06:23:25;15.60;91.40
20777;DHT22;10548;47.504;8.248;2023-05-29T06:25:52;15.70;92.00
20777;DHT22;10548;47.504;8.248;2023-05-29T06:28:19;15.70;93.40
20777;DHT22;10548;47.504;8.248;2023-05-29T06:30:47;15.80;92.60
20777;DHT22;10548;47.504;8.248;2023-05-29T06:33:17;15.90;90.50
20777;DHT22;10548;47.504;8.248;2023-05-29T06:35:44;16.10;88.90
20777;DHT22;10548;47.504;8.248;2023-05-29T06:38:13;16.30;87.00
20777;DHT22;10548;47.504;8.248;2023-05-29T06:40:40;16.30;79.20
20777;DHT22;10548;47.504;8.248;2023-05-29T06:43:07;16.60;78.10
20777;DHT22;10548;47.504;8.248;2023-05-29T06:45:45;16.80;74.10
20777;DHT22;10548;47.504;8.248;2023-05-29T06:48:12;16.80;72.50
20777;DHT22;10548;47.504;8.248;2023-05-29T06:50:40;16.80;74.20
20777;DHT22;10548;47.504;8.248;2023-05-29T06:53:30;16.90;75.40
20777;DHT22;10548;47.504;8.248;2023-05-29T06:55:59;17.00;76.30
20777;DHT22;10548;47.504;8.248;2023-05-29T06:58:26;17.10;75.30
20777;DHT22;10548;47.504;8.248;2023-05-29T07:00:53;17.10;73.20
20777;DHT22;10548;47.504;8.248;2023-05-29T07:03:31;17.40;73.80
20777;DHT22;10548;47.504;8.248;2023-05-29T07:06:01;17.60;72.70
20777;DHT22;10548;47.504;8.248;2023-05-29T07:08:28;17.60;74.20
20777;DHT22;10548;47.504;8.248;2023-05-29T07:10:56;17.60;71.10
20777;DHT22;10548;47.504;8.248;2023-05-29T07:13:25;17.60;74.30
20777;DHT22;10548;47.504;8.248;2023-05-29T07:15:53;17.70;69.30
20777;DHT22;10548;47.504;8.248;2023-05-29T07:18:26;17.70;70.60
20777;DHT22;10548;47.504;8.248;2023-05-29T07:20:56;17.90;68.50
20777;DHT22;10548;47.504;8.248;2023-05-29T07:23:25;17.80;64.30
20777;DHT22;10548;47.504;8.248;2023-05-29T07:25:55;18.10;62.70
20777;DHT22;10548;47.504;8.248;2023-05-29T07:28:24;18.40;65.30
20777;DHT22;10548;47.504;8.248;2023-05-29T07:30:52;18.50;62.20
20777;DHT22;10548;47.504;8.248;2023-05-29T07:33:21;18.50;63.10
20777;DHT22;10548;47.504;8.248;2023-05-29T07:35:48;18.50;61.80
20777;DHT22;10548;47.504;8.248;2023-05-29T07:38:16;18.90;61.00
20777;DHT22;10548;47.504;8.248;2023-05-29T07:40:43;19.00;58.70
20777;DHT22;10548;47.504;8.248;2023-05-29T07:43:18;19.10;57.90
20777;DHT22;10548;47.504;8.248;2023-05-29T07:45:53;19.50;56.90
20777;DHT22;10548;47.504;8.248;2023-05-29T07:48:21;19.70;55.60
20777;DHT22;10548;47.504;8.248;2023-05-29T07:50:50;19.90;57.50
20777;DHT22;10548;47.504;8.248;2023-05-29T07:53:19;20.00;54.60
20777;DHT22;10548;47.504;8.248;2023-05-29T07:55:47;20.40;53.80
20777;DHT22;10548;47.504;8.248;2023-05-29T07:58:15;20.50;52.20
20777;DHT22;10548;47.504;8.248;2023-05-29T08:00:44;20.50;51.50
20777;DHT22;10548;47.504;8.248;2023-05-29T08:03:13;20.80;52.80
20777;DHT22;10548;47.504;8.248;2023-05-29T08:05:59;20.80;53.30
20777;DHT22;10548;47.504;8.248;2023-05-29T08:08:28;20.70;55.30
20777;DHT22;10548;47.504;8.248;2023-05-29T08:10:55;20.90;51.50
20777;DHT22;10548;47.504;8.248;2023-05-29T08:13:23;20.80;51.00
20777;DHT22;10548;47.504;8.248;2023-05-29T08:15:52;20.90;51.20
20777;DHT22;10548;47.504;8.248;2023-05-29T08:18:19;21.20;49.60
20777;DHT22;10548;47.504;8.248;2023-05-29T08:20:46;21.30;50.50
20777;DHT22;10548;47.504;8.248;2023-05-29T08:23:14;21.50;48.30
20777;DHT22;10548;47.504;8.248;2023-05-29T08:25:41;21.20;48.70
20777;DHT22;10548;47.504;8.248;2023-05-29T08:28:08;21.30;50.80
20777;DHT22;10548;47.504;8.248;2023-05-29T08:30:35;21.70;48.90
20777;DHT22;10548;47.504;8.248;2023-05-29T08:33:03;21.60;49.10
20777;DHT22;10548;47.504;8.248;2023-05-29T08:35:31;21.60;47.70
20777;DHT22;10548;47.504;8.248;2023-05-29T08:37:58;21.70;48.30
20777;DHT22;10548;47.504;8.248;2023-05-29T08:40:25;22.10;47.90
20777;DHT22;10548;47.504;8.248;2023-05-29T08:43:16;22.10;45.90
20777;DHT22;10548;47.504;8.248;2023-05-29T08:45:45;22.70;46.40
20777;DHT22;10548;47.504;8.248;2023-05-29T08:48:12;22.40;45.50
20777;DHT22;10548;47.504;8.248;2023-05-29T08:50:44;22.80;45.30
20777;DHT22;10548;47.504;8.248;2023-05-29T08:53:15;22.50;42.60
20777;DHT22;10548;47.504;8.248;2023-05-29T08:55:43;22.50;45.70
20777;DHT22;10548;47.504;8.248;2023-05-29T08:58:11;22.70;44.60
20777;DHT22;10548;47.504;8.248;2023-05-29T09:00:38;23.40;44.00
20777;DHT22;10548;47.504;8.248;2023-05-29T09:03:07;23.10;42.10
20777;DHT22;10548;47.504;8.248;2023-05-29T09:05:35;23.00;43.40
20777;DHT22;10548;47.504;8.248;2023-05-29T09:08:08;23.40;40.10
20777;DHT22;10548;47.504;8.248;2023-05-29T09:10:36;23.30;40.60
20777;DHT22;10548;47.504;8.248;2023-05-29T09:13:05;23.70;40.00
20777;DHT22;10548;47.504;8.248;2023-05-29T09:15:33;24.00;41.10
20777;DHT22;10548;47.504;8.248;2023-05-29T09:18:00;24.10;37.70
20777;DHT22;10548;47.504;8.248;2023-05-29T09:20:28;23.90;39.30
20777;DHT22;10548;47.504;8.248;2023-05-29T09:23:00;24.10;38.40
20777;DHT22;10548;47.504;8.248;2023-05-29T09:25:35;24.20;37.50
20777;DHT22;10548;47.504;8.248;2023-05-29T09:28:04;24.00;37.00
20777;DHT22;10548;47.504;8.248;2023-05-29T09:30:46;24.20;36.60
20777;DHT22;10548;47.504;8.248;2023-05-29T09:33:16;24.10;35.80
20777;DHT22;10548;47.504;8.248;2023-05-29T09:35:48;24.10;36.30
20777;DHT22;10548;47.504;8.248;2023-05-29T09:38:16;24.10;37.40
20777;DHT22;10548;47.504;8.248;2023-05-29T09:41:03;24.00;38.10
20777;DHT22;10548;47.504;8.248;2023-05-29T09:43:31;24.20;36.00
20777;DHT22;10548;47.504;8.248;2023-05-29T09:46:01;24.30;35.80
20777;DHT22;10548;47.504;8.248;2023-05-29T09:48:29;24.30;36.20
20777;DHT22;10548;47.504;8.248;2023-05-29T09:50:58;24.40;35.50
20777;DHT22;10548;47.504;8.248;2023-05-29T09:53:26;24.40;36.30
20777;DHT22;10548;47.504;8.248;2023-05-29T09:55:56;24.40;36.10
20777;DHT22;10548;47.504;8.248;2023-05-29T09:58:26;24.40;36.70
20777;DHT22;10548;47.504;8.248;2023-05-29T10:00:53;24.80;36.80
20777;DHT22;10548;47.504;8.248;2023-05-29T10:03:21;25.50;35.60
20777;DHT22;10548;47.504;8.248;2023-05-29T10:05:50;25.60;34.50
20777;DHT22;10548;47.504;8.248;2023-05-29T10:08:18;25.40;33.80
20777;DHT22;10548;47.504;8.248;2023-05-29T10:10:51;25.60;35.50
20777;DHT22;10548;47.504;8.248;2023-05-29T10:13:22;25.80;34.20
20777;DHT22;10548;47.504;8.248;2023-05-29T10:15:51;25.60;34.80
20777;DHT22;10548;47.504;8.248;2023-05-29T10:18:26;25.90;34.00
20777;DHT22;10548;47.504;8.248;2023-05-29T10:20:54;26.40;33.10
20777;DHT22;10548;47.504;8.248;2023-05-29T10:23:26;26.30;34.30
20777;DHT22;10548;47.504;8.248;2023-05-29T10:26:12;26.30;31.40
20777;DHT22;10548;47.504;8.248;2023-05-29T10:28:43;26.20;30.80
20777;DHT22;10548;47.504;8.248;2023-05-29T10:31:17;26.20;29.50
20777;DHT22;10548;47.504;8.248;2023-05-29T10:37:06;26.00;30.00
20777;DHT22;10548;47.504;8.248;2023-05-29T10:39:35;26.50;29.50
20777;DHT22;10548;47.504;8.248;2023-05-29T10:42:02;26.80;28.70
20777;DHT22;10548;47.504;8.248;2023-05-29T10:44:49;26.60;28.80
20777;DHT22;10548;47.504;8.248;2023-05-29T10:47:23;26.90;29.30
20777;DHT22;10548;47.504;8.248;2023-05-29T10:49:50;26.70;28.80
20777;DHT22;10548;47.504;8.248;2023-05-29T10:52:19;26.90;29.30
20777;DHT22;10548;47.504;8.248;2023-05-29T10:54:51;26.80;27.70
20777;DHT22;10548;47.504;8.248;2023-05-29T10:57:22;27.10;29.50
20777;DHT22;10548;47.504;8.248;2023-05-29T11:00:19;27.30;27.40
20777;DHT22;10548;47.504;8.248;2023-05-29T11:02:52;27.30;27.80
20777;DHT22;10548;47.504;8.248;2023-05-29T11:05:20;27.70;26.90
20777;DHT22;10548;47.504;8.248;2023-05-29T11:07:52;27.60;26.80
20777;DHT22;10548;47.504;8.248;2023-05-29T11:13:06;26.40;25.90
20777;DHT22;10548;47.504;8.248;2023-05-29T11:15:34;27.40;26.30
20777;DHT22;10548;47.504;8.248;2023-05-29T11:18:06;27.30;25.00
20777;DHT22;10548;47.504;8.248;2023-05-29T11:20:43;27.60;25.90
20777;DHT22;10548;47.504;8.248;2023-05-29T11:23:15;26.60;27.20
20777;DHT22;10548;47.504;8.248;2023-05-29T11:25:45;28.00;28.30
20777;DHT22;10548;47.504;8.248;2023-05-29T11:28:14;27.60;27.80
20777;DHT22;10548;47.504;8.248;2023-05-29T11:30:45;28.00;26.90
20777;DHT22;10548;47.504;8.248;2023-05-29T11:33:22;28.10;24.40
20777;DHT22;10548;47.504;8.248;2023-05-29T11:35:58;28.10;26.40
20777;DHT22;10548;47.504;8.248;2023-05-29T11:38:27;27.70;26.50
20777;DHT22;10548;47.504;8.248;2023-05-29T11:40:54;27.90;24.80
20777;DHT22;10548;47.504;8.248;2023-05-29T11:43:22;28.20;23.90
20777;DHT22;10548;47.504;8.248;2023-05-29T11:45:49;28.20;24.10
20777;DHT22;10548;47.504;8.248;2023-05-29T11:48:17;28.10;24.60
20777;DHT22;10548;47.504;8.248;2023-05-29T11:50:44;28.80;25.20
20777;DHT22;10548;47.504;8.248;2023-05-29T11:53:11;29.10;24.40
20777;DHT22;10548;47.504;8.248;2023-05-29T11:55:39;28.80;23.00
20777;DHT22;10548;47.504;8.248;2023-05-29T11:58:06;28.80;22.90
20777;DHT22;10548;47.504;8.248;2023-05-29T12:00:38;28.80;22.20
20777;DHT22;10548;47.504;8.248;2023-05-29T12:03:06;28.70;20.90
20777;DHT22;10548;47.504;8.248;2023-05-29T12:05:48;28.60;22.10
20777;DHT22;10548;47.504;8.248;2023-05-29T12:08:22;28.90;22.70
20777;DHT22;10548;47.504;8.248;2023-05-29T12:10:52;29.00;21.80
20777;DHT22;10548;47.504;8.248;2023-05-29T12:13:20;28.20;21.50
20777;DHT22;10548;47.504;8.248;2023-05-29T12:15:48;29.40;22.80
20777;DHT22;10548;47.504;8.248;2023-05-29T12:18:16;29.00;21.30
20777;DHT22;10548;47.504;8.248;2023-05-29T12:20:43;28.90;21.60
20777;DHT22;10548;47.504;8.248;2023-05-29T12:23:11;29.00;21.80
20777;DHT22;10548;47.504;8.248;2023-05-29T12:25:41;28.60;24.00
20777;DHT22;10548;47.504;8.248;2023-05-29T12:28:16;28.50;21.70
20777;DHT22;10548;47.504;8.248;2023-05-29T12:30:47;29.40;21.80
20777;DHT22;10548;47.504;8.248;2023-05-29T12:33:33;29.20;20.90
20777;DHT22;10548;47.504;8.248;2023-05-29T12:36:08;29.10;21.50
20777;DHT22;10548;47.504;8.248;2023-05-29T12:38:50;29.30;21.20
20777;DHT22;10548;47.504;8.248;2023-05-29T12:41:33;29.50;20.00
20777;DHT22;10548;47.504;8.248;2023-05-29T12:44:02;28.80;20.00
20777;DHT22;10548;47.504;8.248;2023-05-29T12:46:36;29.20;20.60
20777;DHT22;10548;47.504;8.248;2023-05-29T12:49:14;29.40;19.70
20777;DHT22;10548;47.504;8.248;2023-05-29T12:51:43;30.10;20.10
20777;DHT22;10548;47.504;8.248;2023-05-29T12:54:14;29.60;19.40
20777;DHT22;10548;47.504;8.248;2023-05-29T12:56:42;29.80;19.30
20777;DHT22;10548;47.504;8.248;2023-05-29T12:59:10;29.50;19.20
20777;DHT22;10548;47.504;8.248;2023-05-29T13:01:38;29.50;19.70
20777;DHT22;10548;47.504;8.248;2023-05-29T13:04:06;30.10;20.30
20777;DHT22;10548;47.504;8.248;2023-05-29T13:06:39;30.40;19.40
20777;DHT22;10548;47.504;8.248;2023-05-29T13:09:07;29.70;20.20
20777;DHT22;10548;47.504;8.248;2023-05-29T13:11:35;29.90;21.00
20777;DHT22;10548;47.504;8.248;2023-05-29T13:14:04;29.80;20.90
20777;DHT22;10548;47.504;8.248;2023-05-29T13:16:31;29.40;20.10
20777;DHT22;10548;47.504;8.248;2023-05-29T13:18:59;29.70;20.30
20777;DHT22;10548;47.504;8.248;2023-05-29T13:21:26;29.40;20.50
20777;DHT22;10548;47.504;8.248;2023-05-29T13:23:53;29.50;21.30
20777;DHT22;10548;47.504;8.248;2023-05-29T13:26:21;29.60;19.90
20777;DHT22;10548;47.504;8.248;2023-05-29T13:28:49;29.30;20.30
20777;DHT22;10548;47.504;8.248;2023-05-29T13:31:16;29.90;21.30
20777;DHT22;10548;47.504;8.248;2023-05-29T13:33:43;30.10;21.40
20777;DHT22;10548;47.504;8.248;2023-05-29T13:36:10;29.90;19.10
20777;DHT22;10548;47.504;8.248;2023-05-29T13:38:38;29.60;20.30
20777;DHT22;10548;47.504;8.248;2023-05-29T13:41:05;29.60;20.20
20777;DHT22;10548;47.504;8.248;2023-05-29T13:43:32;29.90;19.70
20777;DHT22;10548;47.504;8.248;2023-05-29T13:46:11;29.90;20.20
20777;DHT22;10548;47.504;8.248;2023-05-29T13:48:38;30.00;20.40
20777;DHT22;10548;47.504;8.248;2023-05-29T13:51:05;30.50;20.30
20777;DHT22;10548;47.504;8.248;2023-05-29T13:53:33;29.70;21.50
20777;DHT22;10548;47.504;8.248;2023-05-29T13:56:00;30.30;22.00
20777;DHT22;10548;47.504;8.248;2023-05-29T13:58:27;30.20;21.40
20777;DHT22;10548;47.504;8.248;2023-05-29T14:00:54;30.00;19.80
20777;DHT22;10548;47.504;8.248;2023-05-29T14:03:22;29.50;19.50
20777;DHT22;10548;47.504;8.248;2023-05-29T14:05:52;30.10;19.30
20777;DHT22;10548;47.504;8.248;2023-05-29T14:08:20;30.40;20.20
20777;DHT22;10548;47.504;8.248;2023-05-29T14:10:47;30.40;19.00
20777;DHT22;10548;47.504;8.248;2023-05-29T14:13:15;30.40;19.60
20777;DHT22;10548;47.504;8.248;2023-05-29T14:15:42;29.90;19.60
20777;DHT22;10548;47.504;8.248;2023-05-29T14:18:09;29.90;19.60
20777;DHT22;10548;47.504;8.248;2023-05-29T14:20:36;29.90;17.30
20777;DHT22;10548;47.504;8.248;2023-05-29T14:23:03;30.80;19.50
20777;DHT22;10548;47.504;8.248;2023-05-29T14:25:30;31.10;18.80
20777;DHT22;10548;47.504;8.248;2023-05-29T14:27:57;30.50;17.90
20777;DHT22;10548;47.504;8.248;2023-05-29T14:30:25;30.30;17.70
20777;DHT22;10548;47.504;8.248;2023-05-29T14:32:52;30.40;18.80
20777;DHT22;10548;47.504;8.248;2023-05-29T14:35:19;29.60;18.60
20777;DHT22;10548;47.504;8.248;2023-05-29T14:37:46;29.90;18.80
20777;DHT22;10548;47.504;8.248;2023-05-29T14:40:13;30.00;18.30
20777;DHT22;10548;47.504;8.248;2023-05-29T14:42:41;29.70;18.00
20777;DHT22;10548;47.504;8.248;2023-05-29T14:45:08;30.10;17.50
20777;DHT22;10548;47.504;8.248;2023-05-29T14:47:36;30.00;17.50
20777;DHT22;10548;47.504;8.248;2023-05-29T14:50:03;30.20;18.40
20777;DHT22;10548;47.504;8.248;2023-05-29T14:52:31;30.20;17.80
20777;DHT22;10548;47.504;8.248;2023-05-29T14:55:00;29.80;17.90
20777;DHT22;10548;47.504;8.248;2023-05-29T14:57:29;30.10;18.00
20777;DHT22;10548;47.504;8.248;2023-05-29T14:59:59;30.30;17.80
20777;DHT22;10548;47.504;8.248;2023-05-29T15:02:26;29.80;16.80
20777;DHT22;10548;47.504;8.248;2023-05-29T15:04:54;29.90;18.20
20777;DHT22;10548;47.504;8.248;2023-05-29T15:07:23;29.70;17.00
20777;DHT22;10548;47.504;8.248;2023-05-29T15:09:50;30.00;17.90
20777;DHT22;10548;47.504;8.248;2023-05-29T15:12:17;29.40;16.70
20777;DHT22;10548;47.504;8.248;2023-05-29T15:14:44;29.20;17.30
20777;DHT22;10548;47.504;8.248;2023-05-29T15:17:11;30.00;18.70
20777;DHT22;10548;47.504;8.248;2023-05-29T15:19:38;30.00;18.30
20777;DHT22;10548;47.504;8.248;2023-05-29T15:22:05;29.00;18.40
20777;DHT22;10548;47.504;8.248;2023-05-29T15:24:32;29.50;18.90
20777;DHT22;10548;47.504;8.248;2023-05-29T15:27:00;29.70;18.80
20777;DHT22;10548;47.504;8.248;2023-05-29T15:29:33;29.40;18.30
20777;DHT22;10548;47.504;8.248;2023-05-29T15:32:02;29.40;17.40
20777;DHT22;10548;47.504;8.248;2023-05-29T15:34:29;29.60;18.10
20777;DHT22;10548;47.504;8.248;2023-05-29T15:36:57;30.20;19.00
20777;DHT22;10548;47.504;8.248;2023-05-29T15:39:24;30.50;18.60
20777;DHT22;10548;47.504;8.248;2023-05-29T15:41:52;29.60;18.00
20777;DHT22;10548;47.504;8.248;2023-05-29T15:44:20;29.70;17.30
20777;DHT22;10548;47.504;8.248;2023-05-29T15:46:47;29.20;17.60
20777;DHT22;10548;47.504;8.248;2023-05-29T15:49:14;28.60;18.90